Time;durP1;ratioP1;P1;durP2;ratioP2;P2;SDS_P1;SDS_P2;PMS_P1;PMS_P2;Temp;Humidity;BMP_temperature;BMP_pressure;BME280_temperature;BME280_humidity;BME280_pressure;Samples;Min_cycle;Max_cycle;Signal;HPM_P1;HPM_P2
2022/12/29 00:01:17;;;;;;;2.38;1.40;;;10.10;99.90;;;;;;5015674;28;20053;-67
2022/12/29 00:03:45;;;;;;;1.55;1.20;;;10.10;99.90;;;;;;5033403;28;20044;-67
2022/12/29 00:06:11;;;;;;;2.03;1.50;;;10.10;99.90;;;;;;5033184;28;20164;-67
2022/12/29 00:08:39;;;;;;;3.05;1.75;;;10.10;99.90;;;;;;5033489;28;20508;-67
2022/12/29 00:11:13;;;;;;;2.00;1.50;;;10.10;99.90;;;;;;5033489;28;20111;-67
2022/12/29 00:16:23;;;;;;;1.85;1.20;;;10.10;99.90;;;;;;5033360;28;20049;-67
2022/12/29 00:18:49;;;;;;;3.13;1.80;;;10.10;99.90;;;;;;5032194;28;20128;-67
2022/12/29 00:35:08;;;;;;;1.67;1.50;;;10.00;99.90;;;;;;5033153;28;20045;-67
2022/12/29 00:45:53;;;;;;;3.17;1.83;;;10.00;99.90;;;;;;5033191;28;20077;-67
2022/12/29 00:51:23;;;;;;;2.78;1.50;;;10.00;99.90;;;;;;4990911;28;20045;-67
2022/12/29 00:53:49;;;;;;;1.33;1.13;;;10.10;99.90;;;;;;4990953;28;20042;-67
2022/12/29 00:56:14;;;;;;;3.63;1.45;;;10.10;99.90;;;;;;5010406;28;20052;-67
2022/12/29 00:58:40;;;;;;;3.15;2.30;;;10.10;99.90;;;;;;5032777;28;20041;-67
2022/12/29 01:01:07;;;;;;;4.88;2.10;;;10.10;99.90;;;;;;5032736;28;20449;-67
2022/12/29 01:03:35;;;;;;;3.05;2.10;;;10.20;99.90;;;;;;5032719;28;20037;-67
2022/12/29 01:06:02;;;;;;;4.50;2.33;;;10.20;99.90;;;;;;5032179;28;20511;-67
2022/12/29 01:08:28;;;;;;;3.08;2.10;;;10.20;99.90;;;;;;5032654;28;20087;-67
2022/12/29 01:11:23;;;;;;;2.58;1.48;;;10.20;99.90;;;;;;5032382;28;20036;-67
2022/12/29 01:13:49;;;;;;;4.10;1.83;;;10.20;99.90;;;;;;4998227;28;20109;-67
2022/12/29 01:16:14;;;;;;;2.28;1.60;;;10.20;99.90;;;;;;5032537;28;20076;-67
2022/12/29 01:18:40;;;;;;;4.47;1.80;;;10.30;99.90;;;;;;5032746;28;20046;-67
2022/12/29 01:21:06;;;;;;;1.48;1.15;;;11.10;99.90;;;;;;5032459;28;20528;-67
2022/12/29 01:23:32;;;;;;;1.83;1.27;;;10.30;99.90;;;;;;5032413;28;20404;-67
2022/12/29 01:26:07;;;;;;;2.47;1.80;;;10.30;99.90;;;;;;5014310;28;20048;-67
2022/12/29 01:28:33;;;;;;;2.28;1.65;;;10.30;99.90;;;;;;5032683;28;20607;-67
2022/12/29 01:31:00;;;;;;;3.60;1.95;;;10.30;99.90;;;;;;5013963;28;20132;-67
2022/12/29 01:33:26;;;;;;;2.42;1.50;;;10.30;99.90;;;;;;5032366;28;20515;-67
2022/12/29 01:35:51;;;;;;;3.85;2.10;;;10.30;99.90;;;;;;5014262;28;20153;-67
2022/12/29 01:38:17;;;;;;;1.55;1.20;;;10.30;99.90;;;;;;5032262;28;20037;-67
2022/12/29 01:40:44;;;;;;;1.80;1.27;;;10.90;99.90;;;;;;5032223;28;20040;-67
2022/12/29 01:43:13;;;;;;;3.10;1.42;;;10.30;99.90;;;;;;5032175;28;20041;-67
2022/12/29 01:45:43;;;;;;;2.85;1.30;;;10.30;99.90;;;;;;5014366;28;20042;-65
2022/12/29 01:48:09;;;;;;;2.60;1.65;;;10.40;99.90;;;;;;5014065;28;20038;-66
2022/12/29 01:50:45;;;;;;;2.00;1.40;;;10.40;99.90;;;;;;5032113;28;20040;-67
2022/12/29 01:53:13;;;;;;;2.50;1.60;;;10.40;99.90;;;;;;5032137;28;20033;-67
2022/12/29 01:55:54;;;;;;;3.28;1.50;;;11.10;99.90;;;;;;5032059;28;20038;-67
2022/12/29 01:58:24;;;;;;;3.90;2.08;;;10.50;99.90;;;;;;5014198;28;20037;-66
2022/12/29 02:00:49;;;;;;;2.63;1.15;;;10.40;99.90;;;;;;5031789;28;20095;-66
2022/12/29 02:03:19;;;;;;;2.42;1.55;;;10.50;99.90;;;;;;5032024;28;20077;-66
2022/12/29 02:06:06;;;;;;;3.28;1.92;;;10.50;99.90;;;;;;5013920;28;20054;-66
2022/12/29 02:08:32;;;;;;;3.15;1.73;;;10.50;99.90;;;;;;5031940;28;20057;-66
2022/12/29 02:11:00;;;;;;;1.95;1.48;;;10.60;99.90;;;;;;5031923;28;20037;-66
2022/12/29 02:13:26;;;;;;;2.20;1.58;;;10.50;99.90;;;;;;5031969;28;20048;-67
2022/12/29 02:16:29;;;;;;;3.90;1.60;;;10.60;99.90;;;;;;5031895;28;20061;-66
2022/12/29 02:19:35;;;;;;;1.83;1.08;;;10.60;99.90;;;;;;5031915;28;20040;-67
2022/12/29 02:22:06;;;;;;;1.90;1.27;;;10.60;99.90;;;;;;5031487;28;20103;-67
2022/12/29 02:24:46;;;;;;;1.83;1.27;;;10.60;99.90;;;;;;5031861;28;20121;-66
2022/12/29 02:27:25;;;;;;;1.95;1.42;;;10.60;99.90;;;;;;5013713;28;20433;-65
2022/12/29 02:30:24;;;;;;;2.03;1.27;;;10.60;99.90;;;;;;5031805;28;20509;-66
2022/12/29 02:33:13;;;;;;;2.13;1.52;;;10.60;99.90;;;;;;5031751;28;20045;-66
2022/12/29 02:36:24;;;;;;;1.58;1.30;;;10.60;99.90;;;;;;5031732;28;20046;-66
2022/12/29 02:39:04;;;;;;;2.15;0.73;;;10.70;99.90;;;;;;5031713;28;20038;-67
2022/12/29 02:42:02;;;;;;;3.33;1.42;;;10.60;99.90;;;;;;5014287;28;20037;-67
2022/12/29 02:44:51;;;;;;;1.90;1.17;;;10.70;99.90;;;;;;5035329;28;20409;-67
2022/12/29 02:47:46;;;;;;;1.85;1.00;;;10.60;99.90;;;;;;5035219;28;20049;-66
2022/12/29 02:50:14;;;;;;;4.60;1.15;;;10.50;99.90;;;;;;5017420;28;20046;-67
2022/12/29 02:52:50;;;;;;;0.75;0.75;;;10.50;99.90;;;;;;5035160;28;20077;-66
2022/12/29 02:55:16;;;;;;;1.08;0.80;;;10.50;99.90;;;;;;5034930;28;20038;-67
2022/12/29 02:57:42;;;;;;;1.23;0.90;;;10.40;99.90;;;;;;5035149;28;20041;-66
2022/12/29 03:00:14;;;;;;;3.67;1.45;;;10.50;99.90;;;;;;5035068;28;20072;-66
2022/12/29 03:03:12;;;;;;;1.23;0.80;;;10.50;99.90;;;;;;5034670;28;20042;-67
2022/12/29 03:05:57;;;;;;;1.35;1.10;;;10.50;99.90;;;;;;5034670;28;20076;-67
2022/12/29 03:08:46;;;;;;;0.98;0.80;;;10.50;99.90;;;;;;5017108;28;20370;-66
2022/12/29 03:17:34;;;;;;;1.70;0.88;;;10.50;99.90;;;;;;5034651;28;20497;-67
2022/12/29 03:20:07;;;;;;;0.82;0.60;;;10.50;99.90;;;;;;5034382;28;20037;-67
2022/12/29 03:22:39;;;;;;;1.10;0.77;;;10.50;99.90;;;;;;5034387;28;20041;-67
2022/12/29 03:25:21;;;;;;;1.10;0.80;;;10.50;99.90;;;;;;5034241;28;20049;-66
2022/12/29 03:28:09;;;;;;;1.45;0.80;;;10.50;99.90;;;;;;5034491;28;20080;-67
2022/12/29 03:30:37;;;;;;;1.75;0.82;;;10.50;99.90;;;;;;5034509;28;20045;-68
2022/12/29 03:33:07;;;;;;;1.08;0.88;;;10.60;99.90;;;;;;5034379;28;20048;-67
2022/12/29 03:35:36;;;;;;;1.13;0.80;;;10.60;99.90;;;;;;5034396;28;20045;-67
2022/12/29 03:38:25;;;;;;;1.52;0.93;;;10.60;99.90;;;;;;5016320;28;20049;-67
2022/12/29 03:40:55;;;;;;;1.33;1.08;;;10.60;99.90;;;;;;5033902;28;20045;-67
2022/12/29 03:43:21;;;;;;;1.27;0.85;;;10.50;99.90;;;;;;5034241;28;20053;-67
2022/12/29 03:45:47;;;;;;;1.05;0.80;;;10.50;99.90;;;;;;5034186;28;20037;-67
2022/12/29 03:48:12;;;;;;;2.75;1.00;;;10.60;99.90;;;;;;5034166;28;20041;-67
2022/12/29 03:50:38;;;;;;;3.13;1.05;;;10.50;99.90;;;;;;5034058;28;20107;-66
2022/12/29 03:53:03;;;;;;;2.08;0.90;;;10.50;99.90;;;;;;5033485;28;20038;-66
2022/12/29 03:55:29;;;;;;;0.82;0.63;;;10.50;99.90;;;;;;5034021;28;20041;-67
2022/12/29 03:57:55;;;;;;;1.88;0.85;;;11.00;99.90;;;;;;5034071;28;20042;-67
2022/12/29 04:00:20;;;;;;;1.00;0.90;;;10.50;99.90;;;;;;5033893;28;20472;-67
2022/12/29 04:02:46;;;;;;;0.77;0.73;;;10.50;99.90;;;;;;5033909;28;20504;-67
2022/12/29 04:05:12;;;;;;;2.88;0.73;;;10.50;99.90;;;;;;5033286;28;20080;-67
2022/12/29 04:07:38;;;;;;;1.20;0.68;;;10.50;99.90;;;;;;5015711;28;20045;-67
2022/12/29 04:10:04;;;;;;;1.65;0.88;;;10.60;99.90;;;;;;5033480;28;20552;-67
2022/12/29 04:12:29;;;;;;;2.28;0.80;;;10.50;99.90;;;;;;5033726;28;20115;-67
2022/12/29 04:14:55;;;;;;;1.23;0.70;;;10.50;99.90;;;;;;5015686;28;20111;-67
2022/12/29 04:17:20;;;;;;;0.57;0.50;;;10.50;99.90;;;;;;5015918;28;20396;-67
2022/12/29 04:19:46;;;;;;;0.98;0.73;;;10.40;99.90;;;;;;5033567;28;20045;-67
2022/12/29 04:22:11;;;;;;;0.85;0.63;;;10.40;99.90;;;;;;5033492;28;20040;-67
2022/12/29 04:24:37;;;;;;;0.95;0.50;;;10.40;99.90;;;;;;5033477;28;20048;-67
2022/12/29 04:27:03;;;;;;;0.95;0.73;;;10.30;99.90;;;;;;5033362;28;20053;-67
2022/12/29 04:29:29;;;;;;;0.90;0.50;;;10.30;99.90;;;;;;5033404;28;20109;-67
2022/12/29 04:31:54;;;;;;;0.30;0.30;;;10.20;99.90;;;;;;5033025;28;20040;-67
2022/12/29 04:34:20;;;;;;;1.55;0.50;;;10.20;99.90;;;;;;5015574;28;20044;-67
2022/12/29 04:36:45;;;;;;;0.93;0.57;;;10.20;99.90;;;;;;5033261;28;20098;-67
2022/12/29 04:39:11;;;;;;;3.85;0.38;;;10.20;99.90;;;;;;5015459;28;20480;-67
2022/12/29 04:41:36;;;;;;;1.20;0.50;;;9.90;99.90;;;;;;5033169;28;20167;-67
2022/12/29 04:44:02;;;;;;;1.65;0.80;;;9.90;99.90;;;;;;5015100;28;20046;-67
2022/12/29 04:46:28;;;;;;;0.70;0.43;;;10.00;99.90;;;;;;5032969;28;20057;-67
2022/12/29 04:48:53;;;;;;;2.45;0.40;;;9.90;99.90;;;;;;5033049;28;20033;-67
2022/12/29 04:51:19;;;;;;;3.67;0.70;;;9.80;99.90;;;;;;5015223;28;20048;-66
2022/12/29 04:53:44;;;;;;;0.70;0.50;;;9.80;99.90;;;;;;5032944;28;20034;-66
2022/12/29 04:56:10;;;;;;;4.22;0.60;;;9.70;99.90;;;;;;5015143;28;20488;-67
2022/12/29 04:58:36;;;;;;;2.05;0.63;;;9.70;99.90;;;;;;5032550;28;20048;-67
2022/12/29 05:01:02;;;;;;;1.10;0.50;;;9.70;99.90;;;;;;5032735;28;20425;-68
2022/12/29 05:03:27;;;;;;;0.40;0.40;;;9.70;99.90;;;;;;5032493;28;20156;-68
2022/12/29 05:05:55;;;;;;;0.55;0.50;;;9.70;99.90;;;;;;5031728;28;20147;-67
2022/12/29 05:08:21;;;;;;;1.08;0.70;;;9.80;99.90;;;;;;5032322;28;20046;-70
2022/12/29 05:10:46;;;;;;;1.35;0.50;;;9.80;99.90;;;;;;5032698;28;20034;-67
2022/12/29 05:13:12;;;;;;;1.25;0.50;;;9.80;99.90;;;;;;5032595;28;20037;-66
2022/12/29 05:15:37;;;;;;;0.75;0.40;;;9.80;99.90;;;;;;5032589;28;20037;-67
2022/12/29 05:18:03;;;;;;;4.53;0.60;;;9.80;99.90;;;;;;5032428;28;20113;-67
2022/12/29 05:20:29;;;;;;;4.30;1.10;;;9.80;99.90;;;;;;5032490;28;20125;-67
2022/12/29 05:22:54;;;;;;;2.60;0.70;;;9.80;99.90;;;;;;5032524;28;20611;-67
2022/12/29 05:25:20;;;;;;;1.20;0.40;;;9.70;99.90;;;;;;5032356;28;20489;-66
2022/12/29 05:27:46;;;;;;;5.47;1.13;;;9.80;99.90;;;;;;5032323;28;20521;-67
2022/12/29 05:30:12;;;;;;;5.93;0.82;;;9.80;99.90;;;;;;5014320;28;20191;-67
2022/12/29 05:32:37;;;;;;;0.85;0.77;;;9.70;99.90;;;;;;5032394;28;20370;-67
2022/12/29 05:35:03;;;;;;;2.05;0.63;;;9.70;99.90;;;;;;5014690;28;20044;-67
2022/12/29 05:37:29;;;;;;;0.55;0.45;;;9.70;99.90;;;;;;5032218;28;20037;-67
2022/12/29 05:39:55;;;;;;;5.13;0.90;;;9.60;99.90;;;;;;5032259;28;20044;-67
2022/12/29 05:42:20;;;;;;;6.00;1.05;;;9.60;99.90;;;;;;5031925;28;20127;-69
2022/12/29 05:44:46;;;;;;;0.77;0.40;;;9.60;99.90;;;;;;5032265;28;20072;-67
2022/12/29 05:47:12;;;;;;;3.50;0.65;;;10.00;99.90;;;;;;5031845;28;20042;-67
2022/12/29 05:49:37;;;;;;;0.30;0.30;;;9.60;99.90;;;;;;5032206;28;20044;-67
2022/12/29 05:52:03;;;;;;;4.53;0.60;;;9.60;99.90;;;;;;5032084;28;20040;-66
2022/12/29 05:54:28;;;;;;;2.90;0.77;;;9.60;99.90;;;;;;5032089;28;20044;-67
2022/12/29 05:56:54;;;;;;;0.40;0.40;;;9.60;99.90;;;;;;5014412;28;20619;-67
2022/12/29 05:59:20;;;;;;;1.25;0.65;;;9.50;99.90;;;;;;5014133;28;20059;-67
2022/12/29 06:01:45;;;;;;;1.77;0.60;;;9.50;99.90;;;;;;5032116;28;20045;-66
2022/12/29 06:04:11;;;;;;;1.92;0.40;;;9.50;99.90;;;;;;5031840;28;20525;-67
2022/12/29 06:06:36;;;;;;;1.98;0.40;;;9.50;99.90;;;;;;5031975;28;20050;-67
2022/12/29 06:09:02;;;;;;;3.17;0.80;;;9.60;99.90;;;;;;5013942;28;20034;-67
2022/12/29 06:11:28;;;;;;;3.30;0.93;;;9.50;99.90;;;;;;5031942;28;20444;-67
2022/12/29 06:13:53;;;;;;;0.47;0.40;;;9.60;99.90;;;;;;5014193;28;20045;-68
2022/12/29 06:16:19;;;;;;;0.68;0.57;;;9.60;99.90;;;;;;5033968;28;20042;-67
2022/12/29 06:18:44;;;;;;;3.85;0.60;;;9.60;99.90;;;;;;5035901;28;20044;-69
2022/12/29 06:21:10;;;;;;;4.03;0.52;;;9.60;99.90;;;;;;5035787;28;20143;-68
2022/12/29 06:23:36;;;;;;;1.55;0.52;;;9.60;99.90;;;;;;5035802;28;20037;-67
2022/12/29 06:26:01;;;;;;;0.50;0.43;;;9.60;99.90;;;;;;5017608;28;20500;-67
2022/12/29 06:28:27;;;;;;;3.75;1.13;;;9.60;99.90;;;;;;5035681;28;20119;-67
2022/12/29 06:30:52;;;;;;;2.40;0.35;;;9.60;99.90;;;;;;5035271;28;20034;-70
2022/12/29 06:33:18;;;;;;;2.85;0.68;;;9.50;99.90;;;;;;5017850;28;20053;-66
2022/12/29 06:35:45;;;;;;;1.00;0.55;;;9.50;99.90;;;;;;5035595;28;20163;-67
2022/12/29 06:38:11;;;;;;;3.05;0.88;;;9.50;99.90;;;;;;5035475;28;20451;-69
2022/12/29 06:40:36;;;;;;;1.80;0.47;;;9.50;99.90;;;;;;5035485;28;20117;-68
2022/12/29 06:43:02;;;;;;;1.63;0.73;;;9.60;99.90;;;;;;5035319;28;20041;-69
2022/12/29 06:45:27;;;;;;;2.05;0.45;;;9.50;99.90;;;;;;5035154;28;20037;-66
2022/12/29 06:47:53;;;;;;;5.32;0.70;;;9.60;99.90;;;;;;5035181;28;20037;-66
2022/12/29 06:50:19;;;;;;;2.70;0.55;;;9.70;99.90;;;;;;5035239;28;20555;-70
2022/12/29 06:52:44;;;;;;;6.93;1.05;;;9.60;99.90;;;;;;5035203;28;20042;-68
2022/12/29 06:55:10;;;;;;;2.13;0.47;;;9.60;99.90;;;;;;5035143;28;20485;-69
2022/12/29 06:57:35;;;;;;;2.05;0.77;;;10.30;99.90;;;;;;5035223;28;20045;-68
2022/12/29 07:00:02;;;;;;;1.15;0.45;;;9.60;99.90;;;;;;5035046;28;20124;-75
2022/12/29 07:02:28;;;;;;;2.13;0.50;;;9.60;99.90;;;;;;5000700;28;20045;-71
2022/12/29 07:04:53;;;;;;;1.73;0.57;;;9.70;99.90;;;;;;5016865;28;20393;-69
2022/12/29 07:07:20;;;;;;;4.72;0.77;;;9.70;99.90;;;;;;5016829;28;20060;-69
2022/12/29 07:09:46;;;;;;;4.38;0.45;;;9.70;99.90;;;;;;5017122;28;20045;-70
2022/12/29 07:12:11;;;;;;;5.65;1.67;;;9.60;99.90;;;;;;5034558;28;20056;-68
2022/12/29 07:14:37;;;;;;;0.80;0.38;;;9.60;99.90;;;;;;5034467;28;20045;-66
2022/12/29 07:17:06;;;;;;;3.80;0.95;;;9.60;99.90;;;;;;5034754;28;20042;-71
2022/12/29 07:19:33;;;;;;;1.52;0.70;;;9.50;99.90;;;;;;5000300;28;20509;-71
2022/12/29 07:21:59;;;;;;;2.35;0.50;;;9.50;99.90;;;;;;5016932;28;20044;-67
2022/12/29 07:24:27;;;;;;;0.32;0.30;;;9.50;99.90;;;;;;5034635;28;20520;-67
2022/12/29 07:26:53;;;;;;;1.67;0.68;;;9.60;99.90;;;;;;5015912;28;20037;-67
2022/12/29 07:29:19;;;;;;;6.68;1.38;;;9.60;99.90;;;;;;5016266;28;20048;-66
2022/12/29 07:31:44;;;;;;;1.05;0.80;;;9.60;99.90;;;;;;5016395;28;20065;-67
2022/12/29 07:34:10;;;;;;;1.25;0.40;;;9.60;99.90;;;;;;5034348;28;20045;-67
2022/12/29 07:36:35;;;;;;;13.30;1.42;;;10.30;99.90;;;;;;5034356;28;20480;-66
2022/12/29 07:39:02;;;;;;;1.40;0.70;;;9.70;99.90;;;;;;5034266;28;20037;-67
2022/12/29 07:41:27;;;;;;;4.93;1.50;;;9.70;99.90;;;;;;5034230;28;20404;-66
2022/12/29 07:43:53;;;;;;;1.10;0.68;;;9.70;99.90;;;;;;5016184;28;20049;-68
2022/12/29 07:46:18;;;;;;;1.15;0.30;;;9.70;99.90;;;;;;5016109;28;20122;-67
2022/12/29 07:48:44;;;;;;;4.53;0.95;;;9.80;99.90;;;;;;5016405;28;20132;-67
2022/12/29 07:51:09;;;;;;;0.93;0.73;;;9.80;99.90;;;;;;5034066;28;20037;-67
2022/12/29 07:53:35;;;;;;;2.50;0.82;;;9.70;99.90;;;;;;5033783;28;20511;-67
2022/12/29 07:56:01;;;;;;;2.38;1.08;;;9.70;99.90;;;;;;5015902;28;20045;-67
2022/12/29 07:58:26;;;;;;;3.53;0.85;;;9.70;99.90;;;;;;5033968;28;20455;-66
2022/12/29 08:00:55;;;;;;;1.65;0.82;;;9.70;99.90;;;;;;5033630;28;20056;-66
2022/12/29 08:03:22;;;;;;;3.97;0.93;;;9.60;99.90;;;;;;5016120;28;20092;-67
2022/12/29 08:05:48;;;;;;;3.63;0.47;;;9.60;99.90;;;;;;5033580;28;20421;-67
2022/12/29 08:08:13;;;;;;;3.67;0.65;;;9.60;99.90;;;;;;4999282;28;20120;-67
2022/12/29 08:10:39;;;;;;;2.95;1.25;;;9.60;99.90;;;;;;5033804;28;20450;-67
2022/12/29 08:13:05;;;;;;;0.35;0.35;;;9.60;99.90;;;;;;5033732;28;20041;-67
2022/12/29 08:15:30;;;;;;;3.28;0.73;;;9.60;99.90;;;;;;5033588;28;20043;-67
2022/12/29 08:17:56;;;;;;;2.47;0.55;;;9.60;99.90;;;;;;5033651;28;20390;-67
2022/12/29 08:20:21;;;;;;;3.10;0.90;;;9.70;99.90;;;;;;5033514;28;20532;-66
2022/12/29 08:22:47;;;;;;;2.78;0.73;;;9.70;99.90;;;;;;5015526;28;20179;-67
2022/12/29 08:25:13;;;;;;;5.80;1.35;;;9.70;99.90;;;;;;5015441;28;20528;-67
2022/12/29 08:27:38;;;;;;;5.07;0.80;;;9.70;99.90;;;;;;5033369;28;20144;-66
2022/12/29 08:30:04;;;;;;;3.10;1.45;;;9.70;99.90;;;;;;5033407;28;20497;-66
2022/12/29 08:32:30;;;;;;;1.02;0.70;;;9.80;99.90;;;;;;5032867;28;20080;-67
2022/12/29 08:34:55;;;;;;;1.63;0.93;;;9.80;99.90;;;;;;5015341;28;20076;-66
2022/12/29 08:37:21;;;;;;;4.07;1.15;;;9.70;99.90;;;;;;5015543;28;20033;-67
2022/12/29 08:39:47;;;;;;;5.07;0.90;;;9.80;99.90;;;;;;5032298;28;20045;-66
2022/12/29 08:42:13;;;;;;;3.88;0.82;;;9.70;99.90;;;;;;5032757;28;20043;-66
2022/12/29 08:44:39;;;;;;;5.68;1.08;;;9.80;99.90;;;;;;5033036;28;20045;-66
2022/12/29 08:47:04;;;;;;;4.40;0.70;;;9.80;99.90;;;;;;5032971;28;20073;-66
2022/12/29 08:49:30;;;;;;;3.83;1.10;;;9.80;99.90;;;;;;5014995;28;20567;-66
2022/12/29 08:51:56;;;;;;;3.55;1.02;;;9.80;99.90;;;;;;5032976;28;20037;-66
2022/12/29 08:54:21;;;;;;;4.93;1.13;;;9.90;99.90;;;;;;5032933;28;20548;-66
2022/12/29 08:56:47;;;;;;;5.47;0.57;;;9.80;99.90;;;;;;5032894;28;20041;-66
2022/12/29 08:59:13;;;;;;;2.70;0.70;;;9.90;99.90;;;;;;5032804;28;20044;-66
2022/12/29 09:01:40;;;;;;;7.25;2.10;;;9.90;99.90;;;;;;5032785;28;20041;-66
2022/12/29 09:04:06;;;;;;;0.82;0.65;;;10.00;99.90;;;;;;5015117;28;20087;-66
2022/12/29 09:06:32;;;;;;;7.22;0.82;;;10.00;99.90;;;;;;5032178;28;20075;-66
2022/12/29 09:08:58;;;;;;;0.52;0.50;;;10.10;99.90;;;;;;5032453;28;20325;-66
2022/12/29 09:11:24;;;;;;;4.80;1.20;;;10.10;99.90;;;;;;5014973;28;20086;-66
2022/12/29 09:13:51;;;;;;;0.10;0.10;;;10.10;99.90;;;;;;5014531;28;20164;-67
2022/12/29 09:16:17;;;;;;;5.20;1.17;;;10.40;99.90;;;;;;5032575;28;20045;-67
2022/12/29 09:18:43;;;;;;;2.28;0.70;;;9.80;99.90;;;;;;5014881;28;20048;-67
2022/12/29 09:21:10;;;;;;;2.95;0.70;;;9.80;99.90;;;;;;5032492;28;20045;-67
2022/12/29 09:23:36;;;;;;;7.88;1.58;;;9.70;99.90;;;;;;5032238;28;20042;-67
2022/12/29 09:26:03;;;;;;;2.42;0.80;;;9.70;99.90;;;;;;5031976;28;20052;-67
2022/12/29 09:28:30;;;;;;;8.50;1.20;;;9.70;99.90;;;;;;5032405;28;20427;-68
2022/12/29 09:30:57;;;;;;;3.08;1.27;;;9.70;99.90;;;;;;5032405;28;20451;-67
2022/12/29 09:33:23;;;;;;;4.45;1.40;;;9.70;99.90;;;;;;5032331;28;20382;-67
2022/12/29 09:36:00;;;;;;;0.55;0.40;;;9.70;99.90;;;;;;5032019;28;20124;-67
2022/12/29 09:38:27;;;;;;;11.05;0.82;;;10.30;99.90;;;;;;5032178;28;20393;-67
2022/12/29 09:40:55;;;;;;;2.10;0.80;;;9.70;99.90;;;;;;5031930;28;20033;-67
2022/12/29 09:43:59;;;;;;;7.72;1.92;;;9.70;99.90;;;;;;5031900;28;20052;-67
2022/12/29 09:46:25;;;;;;;3.22;0.65;;;9.70;99.90;;;;;;5026837;28;20053;-67
2022/12/29 09:49:11;;;;;;;5.63;1.25;;;9.70;99.90;;;;;;5031911;28;20053;-68
2022/12/29 09:51:39;;;;;;;7.85;0.63;;;9.70;99.90;;;;;;5036935;28;20124;-67
2022/12/29 09:54:20;;;;;;;1.27;0.68;;;9.80;99.90;;;;;;5038442;28;20077;-67
2022/12/29 09:56:48;;;;;;;1.73;0.70;;;9.80;99.90;;;;;;5038768;28;20052;-67
2022/12/29 09:59:19;;;;;;;10.25;1.40;;;9.80;99.90;;;;;;5038603;28;20053;-67
2022/12/29 10:01:56;;;;;;;2.70;0.70;;;9.80;99.90;;;;;;5038386;28;20128;-67
2022/12/29 10:04:22;;;;;;;3.25;0.65;;;9.80;99.90;;;;;;5038429;28;20444;-68
2022/12/29 10:07:08;;;;;;;7.72;0.90;;;9.80;99.90;;;;;;5038526;28;20041;-68
2022/12/29 10:09:44;;;;;;;4.85;0.95;;;9.80;99.90;;;;;;5038526;28;20424;-68
2022/12/29 10:12:30;;;;;;;4.65;0.85;;;9.70;99.90;;;;;;5038526;28;20049;-67
2022/12/29 10:15:04;;;;;;;2.97;0.77;;;9.60;99.90;;;;;;5038334;28;20045;-67
2022/12/29 10:18:04;;;;;;;4.00;0.60;;;9.60;99.90;;;;;;5038517;28;20175;-67
2022/12/29 10:20:48;;;;;;;2.85;0.65;;;9.50;99.90;;;;;;5038723;28;20045;-68
2022/12/29 10:23:35;;;;;;;4.25;1.15;;;9.50;99.90;;;;;;5038406;28;20076;-68
2022/12/29 10:26:03;;;;;;;8.38;1.02;;;9.40;99.90;;;;;;5038131;28;20463;-67
2022/12/29 10:28:40;;;;;;;2.67;1.38;;;9.30;99.90;;;;;;5038482;28;20041;-67
2022/12/29 10:31:16;;;;;;;3.53;1.23;;;9.20;99.90;;;;;;5038359;28;20528;-67
2022/12/29 10:33:42;;;;;;;3.90;0.50;;;9.10;99.90;;;;;;5037970;28;20040;-67
2022/12/29 10:36:13;;;;;;;1.45;0.68;;;9.00;99.90;;;;;;5020476;28;20041;-66
2022/12/29 10:38:51;;;;;;;3.30;1.48;;;9.00;99.90;;;;;;5038298;28;20041;-67
2022/12/29 10:41:41;;;;;;;3.92;1.23;;;8.90;99.90;;;;;;5038190;28;20045;-67
2022/12/29 10:44:13;;;;;;;3.00;0.60;;;8.90;99.90;;;;;;5038137;28;20053;-67
2022/12/29 10:46:39;;;;;;;8.77;1.00;;;8.90;99.90;;;;;;5038078;28;20120;-67
2022/12/29 10:49:10;;;;;;;7.25;1.08;;;8.90;99.90;;;;;;5038132;28;20378;-67
2022/12/29 10:51:42;;;;;;;7.05;0.80;;;8.80;99.90;;;;;;5020181;28;20112;-67
2022/12/29 10:54:49;;;;;;;1.83;1.20;;;8.80;99.90;;;;;;5038095;28;20065;-66
2022/12/29 10:57:40;;;;;;;3.92;0.90;;;8.80;99.90;;;;;;5037231;28;20072;-66
2022/12/29 11:00:16;;;;;;;1.23;0.75;;;8.90;99.90;;;;;;5038035;28;20072;-67
2022/12/29 11:03:01;;;;;;;1.98;0.65;;;8.90;99.90;;;;;;5035244;28;20102;-66
2022/12/29 11:05:49;;;;;;;1.60;0.90;;;8.80;99.90;;;;;;5034628;28;20433;-66
2022/12/29 11:08:19;;;;;;;0.60;0.60;;;8.80;99.90;;;;;;5034466;28;20076;-66
2022/12/29 11:10:46;;;;;;;2.93;0.90;;;8.70;99.90;;;;;;5034575;28;20116;-67
2022/12/29 11:13:13;;;;;;;2.75;0.52;;;8.70;99.90;;;;;;5034348;28;20037;-67
2022/12/29 11:15:44;;;;;;;6.25;1.00;;;8.70;99.90;;;;;;5034370;28;20046;-67
2022/12/29 11:18:24;;;;;;;1.20;0.70;;;8.70;99.90;;;;;;5034587;28;20041;-66
2022/12/29 11:21:00;;;;;;;1.92;0.82;;;8.70;99.90;;;;;;5034731;28;20128;-68
2022/12/29 11:23:25;;;;;;;6.15;0.98;;;8.70;99.90;;;;;;5034724;28;20531;-66
2022/12/29 11:26:20;;;;;;;1.15;0.50;;;8.70;99.90;;;;;;5034586;28;20041;-66
2022/12/29 11:29:04;;;;;;;1.33;0.43;;;8.70;99.90;;;;;;5034570;28;20037;-66
2022/12/29 11:31:29;;;;;;;1.35;0.45;;;8.70;99.90;;;;;;5016453;28;20076;-66
2022/12/29 11:33:55;;;;;;;0.57;0.57;;;8.70;99.90;;;;;;5034565;28;20483;-66
2022/12/29 11:36:23;;;;;;;2.30;0.57;;;8.60;99.90;;;;;;5016229;28;20107;-66
2022/12/29 11:38:52;;;;;;;1.17;0.70;;;8.70;99.90;;;;;;5034381;28;20049;-66
2022/12/29 11:41:26;;;;;;;6.32;1.10;;;8.60;99.90;;;;;;5034298;28;20045;-66
2022/12/29 11:43:54;;;;;;;2.80;0.75;;;8.60;99.90;;;;;;5034358;28;20409;-67
2022/12/29 11:46:33;;;;;;;0.45;0.38;;;8.60;99.90;;;;;;5034365;28;20079;-66
2022/12/29 11:49:00;;;;;;;2.75;0.95;;;8.60;99.90;;;;;;5034724;28;20037;-68
2022/12/29 11:51:47;;;;;;;1.60;0.50;;;8.60;99.90;;;;;;5034849;28;20041;-67
2022/12/29 11:54:21;;;;;;;10.65;1.58;;;8.60;99.90;;;;;;5033773;28;20034;-67
2022/12/29 11:56:49;;;;;;;2.75;1.00;;;8.60;99.90;;;;;;5034093;28;20041;-68
2022/12/29 11:59:27;;;;;;;5.72;1.10;;;8.60;99.90;;;;;;5015956;28;20456;-68
2022/12/29 12:01:54;;;;;;;2.95;0.85;;;8.80;99.90;;;;;;5015823;28;20518;-67
2022/12/29 12:04:28;;;;;;;4.50;1.23;;;8.80;99.90;;;;;;5033699;28;20049;-67
2022/12/29 12:07:16;;;;;;;4.13;1.70;;;8.90;99.90;;;;;;5015711;28;20057;-67
2022/12/29 12:09:54;;;;;;;3.53;1.30;;;9.00;99.90;;;;;;5016068;28;20042;-67
2022/12/29 12:12:43;;;;;;;9.27;1.35;;;9.00;99.90;;;;;;5016031;28;20172;-67
2022/12/29 12:15:17;;;;;;;3.70;1.10;;;9.00;99.90;;;;;;5015497;28;20091;-67
2022/12/29 12:17:59;;;;;;;6.82;0.55;;;9.10;99.90;;;;;;5033656;28;20104;-67
2022/12/29 12:20:37;;;;;;;7.70;1.20;;;9.10;99.90;;;;;;5015600;28;20081;-67
2022/12/29 12:23:48;;;;;;;2.63;0.70;;;9.10;99.90;;;;;;5033278;28;20041;-68
2022/12/29 12:26:40;;;;;;;2.75;1.27;;;9.10;99.90;;;;;;5032829;28;20098;-67
2022/12/29 12:29:15;;;;;;;7.18;1.70;;;9.20;99.90;;;;;;4985535;28;20513;-67
2022/12/29 12:31:49;;;;;;;9.07;2.13;;;9.20;99.90;;;;;;5032933;28;20033;-67
2022/12/29 12:34:24;;;;;;;5.43;1.00;;;9.10;99.90;;;;;;5033255;28;20389;-67
2022/12/29 12:37:01;;;;;;;8.55;1.20;;;9.10;99.90;;;;;;5015455;28;20055;-67
2022/12/29 12:39:44;;;;;;;6.20;1.60;;;9.20;99.90;;;;;;5015419;28;20041;-67
2022/12/29 12:42:22;;;;;;;3.75;0.90;;;9.20;99.90;;;;;;5033052;28;20045;-67
2022/12/29 12:45:15;;;;;;;4.57;1.17;;;9.30;99.90;;;;;;5033044;28;20509;-67
2022/12/29 12:47:52;;;;;;;6.53;0.70;;;9.40;99.90;;;;;;5014902;28;20046;-67
2022/12/29 12:50:42;;;;;;;8.20;1.40;;;9.50;99.90;;;;;;5014952;28;20397;-67
2022/12/29 12:53:37;;;;;;;2.53;0.70;;;9.60;99.90;;;;;;5015321;28;20042;-67
2022/12/29 12:56:05;;;;;;;3.75;0.95;;;9.60;99.90;;;;;;5032876;28;20508;-66
2022/12/29 12:58:40;;;;;;;2.63;1.02;;;9.70;99.90;;;;;;5032643;28;20103;-67
2022/12/29 13:01:33;;;;;;;6.05;1.20;;;9.80;99.90;;;;;;5015042;28;20057;-67
2022/12/29 13:04:26;;;;;;;6.55;1.13;;;9.70;99.90;;;;;;5032877;28;20087;-67
2022/12/29 13:07:21;;;;;;;3.42;1.30;;;9.60;99.90;;;;;;5032650;28;20120;-67
2022/12/29 13:10:02;;;;;;;3.78;0.90;;;9.50;99.90;;;;;;5014747;28;20051;-66
2022/12/29 13:12:49;;;;;;;13.52;1.58;;;9.40;99.90;;;;;;5014919;28;20099;-66
2022/12/29 13:15:15;;;;;;;5.10;1.25;;;9.30;99.90;;;;;;5032914;28;20604;-67
2022/12/29 13:18:02;;;;;;;10.20;1.55;;;9.30;99.90;;;;;;5032583;28;20524;-68
2022/12/29 13:20:44;;;;;;;5.72;2.08;;;9.30;99.90;;;;;;5032593;28;20550;-66
2022/12/29 13:23:43;;;;;;;7.50;1.13;;;9.20;99.90;;;;;;5014696;28;20488;-66
2022/12/29 13:26:14;;;;;;;7.28;1.65;;;9.20;99.90;;;;;;5031824;28;20037;-67
2022/12/29 13:28:43;;;;;;;;;;;9.10;99.90;;;;;;5032824;28;20033;-67
2022/12/29 13:31:26;;;;;;;11.00;0.73;;;9.10;99.90;;;;;;5032054;28;19925;-67
2022/12/29 13:34:09;;;;;;;7.68;1.08;;;9.10;99.90;;;;;;5032384;28;20034;-67
2022/12/29 13:37:04;;;;;;;7.38;0.80;;;9.20;99.90;;;;;;5032343;28;20048;-67
2022/12/29 13:39:39;;;;;;;9.75;1.30;;;9.10;99.90;;;;;;4998561;28;20085;-67
2022/12/29 13:42:06;;;;;;;5.13;1.02;;;9.20;99.90;;;;;;5033122;28;20033;-67
2022/12/29 13:44:33;;;;;;;4.43;1.10;;;9.20;99.90;;;;;;5033143;28;20457;-67
2022/12/29 13:47:07;;;;;;;4.38;1.50;;;9.20;99.90;;;;;;5033023;28;20045;-67
2022/12/29 13:49:34;;;;;;;5.70;1.10;;;9.30;99.90;;;;;;5033015;28;20033;-67